Time;durP1;ratioP1;P1;durP2;ratioP2;P2;SDS_P1;SDS_P2;PMS_P1;PMS_P2;Temp;Humidity;BMP_temperature;BMP_pressure;BME280_temperature;BME280_humidity;BME280_pressure;Samples;Min_cycle;Max_cycle;Signal;HPM_P1;HPM_P2
2023/03/17 00:00:38;;;;;;;0.10;0.10;;;;;;;3.64;100.00;97866.44;5137432;27;20031;-80
2023/03/17 00:03:04;;;;;;;1.27;1.17;;;;;;;3.49;100.00;97843.97;5135225;27;20036;-80
2023/03/17 00:05:32;;;;;;;0.10;0.10;;;;;;;3.69;100.00;97875.97;5132644;27;20030;-80
2023/03/17 00:08:10;;;;;;;0.35;0.35;;;;;;;3.67;100.00;97869.88;5118170;28;20027;-80
2023/03/17 00:10:36;;;;;;;0.20;0.20;;;;;;;3.64;100.00;97863.81;5113819;28;20027;-81
2023/03/17 00:13:02;;;;;;;1.55;1.10;;;;;;;3.51;100.00;97857.13;5144812;27;20019;-80
2023/03/17 00:15:28;;;;;;;0.10;0.10;;;;;;;3.52;100.00;97859.75;5144811;27;20031;-81
2023/03/17 00:17:55;;;;;;;0.20;0.20;;;;;;;3.61;100.00;97872.69;5119089;28;20566;-80
2023/03/17 00:20:26;;;;;;;0.35;0.35;;;;;;;3.62;100.00;97877.09;5124162;28;20019;-79
2023/03/17 00:22:54;;;;;;;0.10;0.10;;;;;;;3.66;100.00;97877.88;5106384;28;20027;-80
2023/03/17 00:25:31;;;;;;;0.10;0.10;;;;;;;3.66;100.00;97881.34;5093871;28;20052;-80
2023/03/17 00:27:57;;;;;;;0.13;0.13;;;;;;;3.67;100.00;97875.16;5077001;28;20037;-80
2023/03/17 00:30:23;;;;;;;0.10;0.10;;;;;;;3.61;100.00;97870.06;5093495;28;20564;-79
2023/03/17 00:32:54;;;;;;;0.05;0.05;;;;;;;3.65;100.00;97858.47;5093818;28;20032;-80
2023/03/17 00:35:26;;;;;;;0.22;0.22;;;;;;;3.71;100.00;97870.66;5095105;28;20387;-80
2023/03/17 00:37:54;;;;;;;0.10;0.10;;;;;;;3.66;100.00;97873.41;5093941;28;20032;-80
2023/03/17 00:40:25;;;;;;;0.10;0.10;;;;;;;3.68;100.00;97871.63;5076439;28;20031;-80
2023/03/17 00:42:52;;;;;;;1.00;0.40;;;;;;;3.72;100.00;97873.25;5075993;28;20032;-80
2023/03/17 00:45:20;;;;;;;0.00;0.00;;;;;;;3.69;100.00;97852.16;5076099;28;20053;-80
2023/03/17 00:47:46;;;;;;;0.08;0.08;;;;;;;3.68;100.00;97854.88;5075835;28;20054;-80
2023/03/17 00:50:17;;;;;;;0.10;0.10;;;;;;;3.68;100.00;97863.69;5075347;28;20411;-80
2023/03/17 00:52:44;;;;;;;0.10;0.10;;;;;;;3.72;100.00;97867.94;5075359;28;20035;-80
2023/03/17 00:55:10;;;;;;;0.20;0.20;;;;;;;3.74;100.00;97860.84;5092365;28;20495;-81
2023/03/17 00:57:38;;;;;;;0.10;0.10;;;;;;;3.81;100.00;97859.72;5092715;28;20020;-79
2023/03/17 01:00:04;;;;;;;1.27;0.63;;;;;;;3.79;100.00;97850.13;5075800;28;20028;-79
2023/03/17 01:02:31;;;;;;;0.13;0.13;;;;;;;3.77;100.00;97860.75;5076102;28;20020;-80
2023/03/17 01:04:57;;;;;;;0.13;0.13;;;;;;;3.74;100.00;97857.34;5092355;28;20028;-80
2023/03/17 01:07:23;;;;;;;0.10;0.10;;;;;;;3.78;100.00;97857.19;5092361;28;20377;-79
2023/03/17 01:09:49;;;;;;;0.15;0.15;;;;;;;3.80;100.00;97859.81;5092411;28;20060;-80
2023/03/17 01:12:15;;;;;;;0.17;0.17;;;;;;;3.79;100.00;97856.28;5076202;28;20050;-80
2023/03/17 01:14:42;;;;;;;0.20;0.20;;;;;;;3.75;100.00;97856.44;5080616;28;20032;-80
2023/03/17 01:17:18;;;;;;;0.10;0.10;;;;;;;3.87;100.00;97864.00;5080360;28;20441;-80
2023/03/17 01:19:45;;;;;;;0.30;0.30;;;;;;;3.83;100.00;97855.28;5079093;28;20031;-80
2023/03/17 01:22:10;;;;;;;0.28;0.28;;;;;;;3.87;100.00;97855.19;5079716;28;20020;-80
2023/03/17 01:24:36;;;;;;;0.10;0.10;;;;;;;3.81;100.00;97857.09;5122464;27;20046;-79
2023/03/17 01:27:03;;;;;;;0.40;0.40;;;;;;;3.78;100.00;97857.19;5123754;27;20463;-80
2023/03/17 01:29:29;;;;;;;0.17;0.17;;;;;;;3.75;100.00;97862.56;5146552;27;20042;-80
2023/03/17 01:31:55;;;;;;;0.20;0.20;;;;;;;3.72;100.00;97849.44;5140398;27;20376;-80
2023/03/17 01:34:21;;;;;;;0.50;0.50;;;;;;;3.66;100.00;97840.84;5134592;27;20063;-80
2023/03/17 01:36:47;;;;;;;0.30;0.30;;;;;;;3.68;100.00;97836.38;5133940;27;20070;-80
2023/03/17 01:39:13;;;;;;;0.28;0.28;;;;;;;3.76;100.00;97847.56;5151387;27;20038;-81
2023/03/17 01:41:38;;;;;;;0.10;0.10;;;;;;;3.79;100.00;97845.69;5135154;27;20468;-81
2023/03/17 01:44:06;;;;;;;0.80;0.73;;;;;;;3.78;100.00;97857.19;5126616;27;20021;-80
2023/03/17 01:46:34;;;;;;;0.47;0.30;;;;;;;3.78;100.00;97867.75;5127455;27;20030;-81
2023/03/17 01:49:08;;;;;;;0.15;0.15;;;;;;;3.82;100.00;97889.72;5111767;27;20022;-81
2023/03/17 01:51:59;;;;;;;0.15;0.15;;;;;;;3.82;100.00;97906.44;5108477;27;20082;-80
2023/03/17 01:54:37;;;;;;;0.30;0.30;;;;;;;3.70;100.00;97901.53;5135590;27;20023;-81
2023/03/17 01:57:09;;;;;;;0.82;0.63;;;;;;;3.84;100.00;97914.38;5138000;27;20019;-81
2023/03/17 01:59:38;;;;;;;0.30;0.30;;;;;;;3.81;100.00;97920.59;5129267;27;20027;-81
2023/03/17 02:02:09;;;;;;;0.52;0.52;;;;;;;3.77;100.00;97907.50;5122312;27;20042;-80
2023/03/17 02:04:36;;;;;;;0.38;0.38;;;;;;;3.64;100.00;97885.84;5127464;27;20490;-80
2023/03/17 02:07:03;;;;;;;0.25;0.25;;;;;;;3.69;100.00;97909.53;5116567;27;20023;-80
2023/03/17 02:09:30;;;;;;;0.28;0.28;;;;;;;3.71;100.00;97913.84;5125192;27;20073;-80
2023/03/17 02:11:57;;;;;;;1.35;1.17;;;;;;;3.64;100.00;97922.00;5114585;27;20109;-80
2023/03/17 02:14:24;;;;;;;1.95;0.55;;;;;;;3.72;100.00;97930.59;5117580;27;20515;-81
2023/03/17 02:16:49;;;;;;;0.55;0.55;;;;;;;3.70;100.00;97935.91;5132515;27;20084;-80
2023/03/17 02:19:16;;;;;;;0.45;0.45;;;;;;;3.65;100.00;97924.59;5121514;27;20023;-80
2023/03/17 02:21:50;;;;;;;0.40;0.40;;;;;;;3.66;100.00;97914.91;5103465;27;20474;-81
2023/03/17 02:24:39;;;;;;;0.63;0.63;;;;;;;3.76;100.00;97930.44;5124059;27;20456;-80
2023/03/17 02:27:30;;;;;;;0.20;0.20;;;;;;;3.59;100.00;97923.91;5125780;27;20019;-80
2023/03/17 02:29:56;;;;;;;0.20;0.20;;;;;;;3.61;100.00;97933.53;5091750;27;20410;-80
2023/03/17 02:32:22;;;;;;;0.30;0.30;;;;;;;3.68;100.00;97945.69;5102291;27;20391;-80
2023/03/17 02:34:48;;;;;;;0.40;0.40;;;;;;;3.57;100.00;97931.03;5143852;27;20027;-80
2023/03/17 02:37:15;;;;;;;0.10;0.10;;;;;;;3.63;100.00;97947.56;5124621;27;20019;-80
2023/03/17 02:39:41;;;;;;;0.30;0.30;;;;;;;3.60;100.00;97962.69;5128884;27;20060;-80
2023/03/17 02:42:07;;;;;;;0.10;0.10;;;;;;;3.69;100.00;97952.69;5120757;27;20019;-81
2023/03/17 02:44:32;;;;;;;0.20;0.20;;;;;;;3.65;100.00;97951.06;5104410;27;20019;-80
2023/03/17 02:46:58;;;;;;;0.20;0.20;;;;;;;3.73;100.00;97951.69;5111782;27;20019;-80
2023/03/17 02:49:24;;;;;;;0.10;0.10;;;;;;;3.70;100.00;97940.31;5138115;27;20031;-79
2023/03/17 02:51:50;;;;;;;0.10;0.10;;;;;;;3.76;100.00;97940.16;5144602;27;20058;-80
2023/03/17 02:54:16;;;;;;;0.22;0.22;;;;;;;3.82;100.00;97948.78;5105123;27;20486;-80
2023/03/17 02:56:41;;;;;;;0.10;0.10;;;;;;;3.69;100.00;97931.53;5132419;27;20304;-80
2023/03/17 02:59:07;;;;;;;0.20;0.20;;;;;;;3.72;100.00;97941.16;5125483;27;20026;-81
2023/03/17 03:01:33;;;;;;;0.20;0.20;;;;;;;3.67;100.00;97956.28;5109999;27;20402;-80
2023/03/17 03:03:59;;;;;;;0.38;0.28;;;;;;;3.70;100.00;97958.84;5124058;27;20555;-79
2023/03/17 03:06:24;;;;;;;0.50;0.50;;;;;;;3.64;100.00;97967.81;5109823;27;20546;-80
2023/03/17 03:08:51;;;;;;;0.20;0.20;;;;;;;3.47;100.00;97963.91;5127427;27;20031;-80
2023/03/17 03:11:17;;;;;;;0.50;0.50;;;;;;;3.51;100.00;97968.19;5136134;27;20023;-79
2023/03/17 03:13:42;;;;;;;0.40;0.32;;;;;;;3.70;100.00;97985.28;5125935;27;20560;-81
2023/03/17 03:16:08;;;;;;;1.98;1.33;;;;;;;3.67;100.00;97985.38;5133165;27;20079;-81
2023/03/17 03:18:34;;;;;;;0.13;0.13;;;;;;;3.40;100.00;97968.50;5125009;27;20031;-80
2023/03/17 03:21:00;;;;;;;0.13;0.13;;;;;;;3.50;100.00;97971.75;5116901;27;20023;-80
2023/03/17 03:23:26;;;;;;;2.50;0.68;;;;;;;3.42;100.00;97961.38;5098153;27;20054;-80
2023/03/17 03:25:52;;;;;;;0.30;0.30;;;;;;;3.43;100.00;97975.47;5109700;27;20543;-80
2023/03/17 03:28:18;;;;;;;0.63;0.63;;;;;;;3.54;100.00;97987.50;5102441;27;20470;-83
2023/03/17 03:30:44;;;;;;;0.30;0.30;;;;;;;3.48;100.00;97985.00;5106308;27;20026;-85
2023/03/17 03:33:11;;;;;;;0.35;0.35;;;;;;;3.38;100.00;97983.53;5118980;27;20387;-83
2023/03/17 03:35:37;;;;;;;0.50;0.50;;;;;;;3.45;100.00;97993.03;5107343;27;20088;-84
2023/03/17 03:38:03;;;;;;;0.55;0.45;;;;;;;3.48;100.00;97990.31;5137471;27;20023;-85
2023/03/17 03:40:28;;;;;;;0.35;0.35;;;;;;;3.41;100.00;97987.88;5112574;27;20046;-85
2023/03/17 03:42:54;;;;;;;0.20;0.20;;;;;;;3.39;100.00;98006.41;5148137;27;20102;-85
2023/03/17 03:45:20;;;;;;;0.17;0.17;;;;;;;3.39;100.00;97998.47;5132174;27;20022;-79
2023/03/17 03:47:45;;;;;;;0.32;0.25;;;;;;;3.42;100.00;98002.81;5150283;27;20023;-81
2023/03/17 03:50:11;;;;;;;2.08;0.75;;;;;;;3.45;100.00;98000.09;5112728;27;20015;-80
2023/03/17 03:52:36;;;;;;;1.75;1.23;;;;;;;3.50;100.00;98000.84;5150530;27;20418;-80
2023/03/17 03:55:02;;;;;;;0.45;0.45;;;;;;;3.61;100.00;98012.88;5109015;28;20105;-80
2023/03/17 03:57:28;;;;;;;0.75;0.35;;;;;;;3.58;100.00;98010.31;5115382;27;20027;-80
2023/03/17 03:59:53;;;;;;;2.70;0.82;;;;;;;3.57;100.00;97997.97;5130441;27;20023;-80
2023/03/17 04:02:19;;;;;;;0.32;0.32;;;;;;;3.70;100.00;98002.03;5107013;27;20019;-81
2023/03/17 04:05:06;;;;;;;0.10;0.10;;;;;;;3.77;100.00;97997.44;5100090;27;20082;-81
2023/03/17 04:07:37;;;;;;;0.30;0.30;;;;;;;3.43;100.00;97960.47;5127126;27;20027;-82
2023/03/17 04:10:03;;;;;;;0.73;0.60;;;;;;;3.61;100.00;97986.41;5121945;27;20023;-80
2023/03/17 04:12:29;;;;;;;0.50;0.50;;;;;;;3.67;100.00;97986.25;5136085;27;20474;-81
2023/03/17 04:14:54;;;;;;;0.77;0.77;;;;;;;3.55;100.00;97981.31;5123662;28;20034;-80
2023/03/17 04:17:20;;;;;;;0.20;0.20;;;;;;;3.44;100.00;97983.38;5116167;28;20023;-81
2023/03/17 04:19:45;;;;;;;0.28;0.28;;;;;;;3.45;100.00;97997.44;5124025;28;20046;-82
2023/03/17 04:22:12;;;;;;;0.82;0.80;;;;;;;3.46;100.00;97992.13;5121403;27;20603;-82
2023/03/17 04:24:38;;;;;;;0.38;0.38;;;;;;;3.64;100.00;98019.84;5104979;28;20110;-83
2023/03/17 04:27:03;;;;;;;0.73;0.73;;;;;;;3.45;100.00;98002.72;5122508;27;20075;-82
2023/03/17 04:29:30;;;;;;;0.30;0.30;;;;;;;3.53;100.00;98020.16;5111704;28;20552;-82
2023/03/17 04:31:55;;;;;;;0.77;0.77;;;;;;;3.53;100.00;98016.63;5113060;28;20030;-82
2023/03/17 04:34:21;;;;;;;0.20;0.20;;;;;;;3.56;100.00;98011.25;5132478;28;20027;-81
2023/03/17 04:36:47;;;;;;;0.43;0.43;;;;;;;3.61;100.00;98023.44;5130675;27;20019;-83
2023/03/17 04:39:14;;;;;;;0.22;0.22;;;;;;;3.73;100.00;98022.25;5143875;27;20024;-83
2023/03/17 04:41:39;;;;;;;0.20;0.20;;;;;;;3.71;100.00;98014.38;5104644;28;20034;-82
2023/03/17 04:44:05;;;;;;;1.75;1.42;;;;;;;3.80;100.00;98022.03;5124153;27;20462;-82
2023/03/17 04:46:31;;;;;;;1.27;1.20;;;;;;;3.81;100.00;98022.91;5096501;27;20037;-82
2023/03/17 04:48:57;;;;;;;0.75;0.75;;;;;;;3.78;100.00;98025.66;5125367;27;20110;-81
2023/03/17 04:51:22;;;;;;;0.65;0.65;;;;;;;3.67;100.00;98025.06;5129972;27;20483;-82
2023/03/17 04:53:48;;;;;;;1.10;1.00;;;;;;;3.65;100.00;98033.03;5126590;27;20042;-83
2023/03/17 04:56:14;;;;;;;0.47;0.47;;;;;;;3.74;100.00;98046.03;5133098;27;20023;-82
2023/03/17 04:58:40;;;;;;;1.23;1.13;;;;;;;3.69;100.00;98031.19;5118660;27;20023;-83
2023/03/17 05:01:06;;;;;;;1.27;0.98;;;;;;;3.63;100.00;98016.31;5150762;27;20027;-82
2023/03/17 05:03:32;;;;;;;0.70;0.70;;;;;;;3.86;100.00;98057.16;5127593;27;20066;-81
2023/03/17 05:05:58;;;;;;;1.75;1.60;;;;;;;3.86;100.00;98050.09;5135683;27;20023;-82
2023/03/17 05:08:24;;;;;;;0.55;0.55;;;;;;;3.92;100.00;98059.66;5101390;27;20047;-82
2023/03/17 05:10:50;;;;;;;0.68;0.68;;;;;;;3.92;100.00;98060.53;5099723;27;20093;-82
2023/03/17 05:13:16;;;;;;;1.55;1.05;;;;;;;3.96;100.00;98056.03;5149619;27;20022;-83
2023/03/17 05:15:49;;;;;;;1.75;0.63;;;;;;;3.92;100.00;98062.28;5108166;27;20092;-81
2023/03/17 05:18:15;;;;;;;2.00;1.23;;;;;;;3.93;100.00;98069.34;5109942;27;20038;-83
2023/03/17 05:20:40;;;;;;;0.73;0.73;;;;;;;3.96;100.00;98072.78;5110249;27;20031;-82
2023/03/17 05:23:06;;;;;;;0.60;0.60;;;;;;;3.97;100.00;98055.13;5130946;27;20106;-82
2023/03/17 05:25:32;;;;;;;0.50;0.50;;;;;;;4.07;100.00;98061.88;5130684;27;20047;-82
2023/03/17 05:27:57;;;;;;;0.43;0.43;;;;;;;4.00;100.00;98065.63;5125131;27;20026;-82
2023/03/17 05:30:24;;;;;;;0.30;0.30;;;;;;;4.02;100.00;98058.50;5108037;27;20023;-83
2023/03/17 05:32:50;;;;;;;0.38;0.38;;;;;;;4.05;100.00;98061.06;5107979;27;20027;-82
2023/03/17 05:35:16;;;;;;;0.15;0.15;;;;;;;4.13;100.00;98059.06;5125295;27;20098;-81
2023/03/17 05:37:42;;;;;;;0.35;0.35;;;;;;;4.15;100.00;98041.38;5106490;27;20039;-82
2023/03/17 05:40:09;;;;;;;0.70;0.68;;;;;;;4.14;100.00;98036.97;5142837;27;20022;-84
2023/03/17 05:42:34;;;;;;;0.70;0.70;;;;;;;4.18;100.00;98046.56;5116936;27;20042;-83
2023/03/17 05:45:00;;;;;;;2.72;1.27;;;;;;;4.25;100.00;98056.06;5117054;27;20011;-82
2023/03/17 05:47:25;;;;;;;0.55;0.55;;;;;;;4.26;100.00;98056.03;5110471;27;20410;-83
2023/03/17 05:49:51;;;;;;;0.13;0.13;;;;;;;4.30;100.00;98072.69;5143634;27;20042;-86
2023/03/17 05:52:17;;;;;;;0.20;0.20;;;;;;;4.34;100.00;98100.78;5127239;27;20023;-87
2023/03/17 05:54:43;;;;;;;0.73;0.73;;;;;;;4.30;100.00;98088.59;5122439;27;20027;-84
2023/03/17 05:57:09;;;;;;;0.55;0.55;;;;;;;4.14;100.00;98066.09;5101486;27;20114;-82
2023/03/17 05:59:35;;;;;;;0.40;0.40;;;;;;;4.24;100.00;98067.56;5111327;27;20058;-82
2023/03/17 06:02:01;;;;;;;0.90;0.85;;;;;;;4.23;100.00;98060.53;5125300;27;20555;-83
2023/03/17 06:04:27;;;;;;;0.70;0.70;;;;;;;4.39;100.00;98077.72;5110962;27;20383;-83
2023/03/17 06:06:52;;;;;;;0.57;0.57;;;;;;;4.39;100.00;98067.13;5133200;27;20039;-83
2023/03/17 06:09:18;;;;;;;1.20;0.50;;;;;;;4.50;100.00;98065.03;5124722;27;20061;-82
2023/03/17 06:11:44;;;;;;;0.73;0.73;;;;;;;4.60;100.00;98066.50;5111547;27;20524;-81
2023/03/17 06:14:10;;;;;;;6.60;1.33;;;;;;;4.52;100.00;98057.91;5150616;27;20031;-81
2023/03/17 06:16:35;;;;;;;1.45;0.85;;;;;;;4.71;100.00;98074.97;5133710;27;20034;-83
2023/03/17 06:19:01;;;;;;;14.75;2.50;;;;;;;4.82;100.00;98078.19;5132948;27;20031;-82
2023/03/17 06:21:27;;;;;;;1.65;0.95;;;;;;;4.84;100.00;98064.88;5133304;27;20026;-82
2023/03/17 06:23:53;;;;;;;0.95;0.95;;;;;;;4.96;100.00;98072.44;5116104;27;20552;-83
2023/03/17 06:26:18;;;;;;;2.42;1.83;;;;;;;5.04;100.00;98054.53;5133276;27;20027;-83
2023/03/17 06:28:44;;;;;;;1.55;1.13;;;;;;;5.08;100.00;98047.31;5129546;27;20035;-82
2023/03/17 06:31:11;;;;;;;21.13;2.05;;;;;;;5.14;100.00;98039.16;5132936;27;20031;-82
2023/03/17 06:33:36;;;;;;;1.02;1.02;;;;;;;5.19;100.00;98038.13;5102553;27;20463;-84
2023/03/17 06:36:02;;;;;;;3.17;1.70;;;;;;;5.33;100.00;98040.31;5125216;27;20066;-83
2023/03/17 06:38:28;;;;;;;0.68;0.60;;;;;;;5.24;100.00;98030.00;5105856;27;20038;-84
2023/03/17 06:40:54;;;;;;;3.03;0.98;;;;;;;5.24;100.00;98030.88;5105294;27;20031;-81
2023/03/17 06:43:21;;;;;;;2.85;2.08;;;;;;;5.43;100.00;98033.78;5116901;27;20442;-82
2023/03/17 06:45:46;;;;;;;1.25;1.15;;;;;;;5.60;100.00;98025.25;5128699;27;20053;-83
2023/03/17 06:48:12;;;;;;;1.60;1.27;;;;;;;5.67;100.00;98027.63;5117274;27;20031;-82
2023/03/17 06:50:37;;;;;;;1.85;1.23;;;;;;;5.68;100.00;98018.75;5098982;27;20031;-82
2023/03/17 06:53:03;;;;;;;1.08;0.95;;;;;;;5.76;100.00;98016.69;5104712;27;20058;-83
2023/03/17 06:55:30;;;;;;;0.98;0.88;;;;;;;5.90;100.00;98025.06;5130813;27;20027;-82
2023/03/17 06:57:56;;;;;;;3.15;2.58;;;;;;;5.92;100.00;98023.22;5117940;27;20023;-82
2023/03/17 07:00:21;;;;;;;6.07;2.78;;;;;;;5.89;100.00;98020.69;5107516;27;20392;-83
2023/03/17 07:02:48;;;;;;;3.28;1.92;;;;;;;6.00;100.00;98021.16;5106567;27;20070;-83
2023/03/17 07:05:14;;;;;;;3.05;1.33;;;;;;;6.06;100.00;98006.78;5107639;27;20031;-82
2023/03/17 07:07:39;;;;;;;0.73;0.55;;;;;;;6.02;100.00;97993.69;5133185;27;20117;-84
2023/03/17 07:10:09;;;;;;;0.93;0.80;;;;;;;6.19;100.00;98012.50;5117211;27;20414;-82
2023/03/17 07:12:34;;;;;;;1.23;1.23;;;;;;;6.15;100.00;98002.94;5097973;27;20507;-83
2023/03/17 07:15:00;;;;;;;0.45;0.45;;;;;;;6.20;100.00;98006.28;5103550;27;20023;-83
2023/03/17 07:17:26;;;;;;;4.97;2.80;;;;;;;6.31;100.00;98010.25;5147921;27;20034;-84
2023/03/17 07:19:51;;;;;;;1.35;1.00;;;;;;;6.14;100.00;98014.47;5131723;27;20631;-82
2023/03/17 07:22:17;;;;;;;2.40;1.38;;;;;;;6.35;100.00;98021.63;5148324;27;20102;-84
2023/03/17 07:24:43;;;;;;;1.85;1.67;;;;;;;6.38;100.00;98017.09;5124769;27;20043;-83
2023/03/17 07:27:09;;;;;;;2.58;1.42;;;;;;;6.37;100.00;98014.47;5097123;27;20043;-83
2023/03/17 07:29:35;;;;;;;2.10;1.83;;;;;;;6.26;100.00;98012.22;5105528;27;20027;-83
2023/03/17 07:32:01;;;;;;;4.03;1.75;;;;;;;6.24;100.00;98019.41;5102622;27;20459;-83
2023/03/17 07:34:27;;;;;;;1.27;1.17;;;;;;;6.31;100.00;98012.91;5124210;27;20393;-83
2023/03/17 07:36:52;;;;;;;1.73;1.15;;;;;;;6.37;100.00;98015.34;5101746;27;20041;-83
2023/03/17 07:39:18;;;;;;;1.73;1.48;;;;;;;6.29;100.00;98005.94;5131262;27;20435;-83
2023/03/17 07:41:47;;;;;;;0.50;0.50;;;;;;;6.35;100.00;98016.31;5133224;27;20375;-84
2023/03/17 07:44:13;;;;;;;0.88;0.60;;;;;;;6.11;100.00;98010.16;5148904;27;20054;-83
2023/03/17 07:46:39;;;;;;;0.80;0.80;;;;;;;6.28;100.00;98018.34;5116417;27;20053;-83
2023/03/17 07:49:05;;;;;;;0.95;0.85;;;;;;;6.28;100.00;98007.72;5126820;27;20446;-83
2023/03/17 07:51:30;;;;;;;0.20;0.20;;;;;;;6.32;100.00;98000.50;5113985;27;20623;-83
2023/03/17 07:54:02;;;;;;;1.48;0.95;;;;;;;6.16;100.00;97996.69;5138616;27;20026;-84
2023/03/17 07:56:29;;;;;;;0.37;0.37;;;;;;;6.26;100.00;98003.41;5121068;27;20023;-83
2023/03/17 07:58:57;;;;;;;0.22;0.22;;;;;;;6.44;100.00;98003.56;5130951;27;20330;-83
2023/03/17 08:01:23;;;;;;;0.20;0.20;;;;;;;6.43;100.00;97998.28;5116667;27;20483;-84
2023/03/17 08:03:48;;;;;;;2.50;1.67;;;;;;;6.42;100.00;98009.88;5122766;27;20164;-84
2023/03/17 08:06:14;;;;;;;2.20;1.45;;;;;;;6.41;100.00;98011.66;5110365;27;20042;-83
2023/03/17 08:08:40;;;;;;;0.80;0.80;;;;;;;6.33;100.00;97992.50;5112273;28;20027;-83
2023/03/17 08:11:06;;;;;;;0.77;0.77;;;;;;;6.28;100.00;97996.22;5130953;27;20019;-83
2023/03/17 08:13:32;;;;;;;1.92;0.90;;;;;;;6.61;100.00;97997.63;5108116;28;20034;-84
2023/03/17 08:15:58;;;;;;;0.70;0.68;;;;;;;6.64;100.00;97986.84;5113715;28;20554;-83
2023/03/17 08:18:24;;;;;;;0.75;0.75;;;;;;;6.86;100.00;97985.06;5118321;27;20062;-82
2023/03/17 08:20:50;;;;;;;0.70;0.70;;;;;;;7.09;100.00;97985.00;5132257;27;20035;-83
2023/03/17 08:23:19;;;;;;;0.17;0.17;;;;;;;7.15;100.00;97956.41;5133061;27;20172;-82
2023/03/17 08:25:45;;;;;;;1.50;1.02;;;;;;;7.18;100.00;97961.59;5128492;27;20486;-83
2023/03/17 08:28:11;;;;;;;0.50;0.50;;;;;;;7.34;100.00;97954.72;5117996;27;20065;-82
2023/03/17 08:30:37;;;;;;;1.17;0.55;;;;;;;7.29;100.00;97946.91;5132435;27;20058;-82
2023/03/17 08:33:03;;;;;;;0.60;0.45;;;;;;;7.48;100.00;97955.84;5109465;27;20064;-82
2023/03/17 08:35:29;;;;;;;0.80;0.70;;;;;;;7.56;100.00;97936.91;5105633;27;20023;-82
2023/03/17 08:37:55;;;;;;;3.72;1.73;;;;;;;7.55;100.00;97940.47;5136387;27;20023;-82
2023/03/17 08:40:21;;;;;;;0.60;0.55;;;;;;;7.41;100.00;97940.22;5112662;27;20026;-82
2023/03/17 08:42:47;;;;;;;18.13;8.15;;;;;;;7.38;100.00;97943.84;5134727;27;20038;-83
2023/03/17 08:45:15;;;;;;;13.60;7.38;;;;;;;7.70;100.00;97945.13;5126268;27;20026;-81
2023/03/17 08:47:41;;;;;;;37.63;12.07;;;;;;;7.85;100.00;97948.91;5134190;27;20027;-81
2023/03/17 08:50:10;;;;;;;15.45;6.07;;;;;;;7.91;100.00;97933.50;5151703;27;20033;-82
2023/03/17 08:52:36;;;;;;;6.85;4.53;;;;;;;7.47;100.00;97926.66;5121201;27;20444;-82
2023/03/17 08:55:02;;;;;;;18.42;5.60;;;;;;;7.59;100.00;97942.94;5092082;27;20035;-82
2023/03/17 08:57:27;;;;;;;37.67;12.70;;;;;;;7.81;100.00;97950.00;5117333;27;20023;-82
2023/03/17 08:59:53;;;;;;;25.52;8.15;;;;;;;7.87;100.00;97947.94;5117453;27;20387;-82
2023/03/17 09:02:19;;;;;;;16.65;7.70;;;;;;;8.00;100.00;97943.75;5117313;27;20023;-82
2023/03/17 09:04:45;;;;;;;11.40;6.40;;;;;;;8.12;100.00;97943.19;5134204;27;20027;-81
2023/03/17 09:07:11;;;;;;;8.95;5.43;;;;;;;7.97;100.00;97935.91;5143288;27;20467;-81
2023/03/17 09:09:37;;;;;;;8.43;4.70;;;;;;;8.19;100.00;97949.09;5138364;27;20027;-82
2023/03/17 09:12:05;;;;;;;8.32;3.80;;;;;;;8.46;100.00;97944.34;5099964;27;20031;-83
2023/03/17 09:14:31;;;;;;;5.75;3.47;;;;;;;8.70;100.00;97941.34;5105698;27;20019;-82
2023/03/17 09:16:57;;;;;;;48.45;21.42;;;;;;;8.35;96.02;97922.66;5100104;27;20028;-82
2023/03/17 09:19:22;;;;;;;9.40;4.60;;;;;;;8.75;97.62;97927.81;5110928;27;20114;-83
2023/03/17 09:21:49;;;;;;;14.23;6.88;;;;;;;8.64;98.28;97930.97;5133811;27;20088;-83
2023/03/17 09:24:14;;;;;;;26.48;15.30;;;;;;;9.05;98.17;97941.44;5093973;28;20044;-82
2023/03/17 09:26:40;;;;;;;10.05;5.28;;;;;;;8.95;96.20;97934.84;5076014;28;20035;-83
2023/03/17 09:29:06;;;;;;;7.65;3.80;;;;;;;9.13;92.54;97926.78;5076180;28;20032;-84
2023/03/17 09:31:32;;;;;;;4.88;3.00;;;;;;;9.24;91.93;97932.44;5076041;28;20104;-84
2023/03/17 09:33:58;;;;;;;8.93;2.95;;;;;;;9.57;90.55;97934.31;5075972;28;20035;-82
2023/03/17 09:36:24;;;;;;;6.70;3.63;;;;;;;9.60;90.57;97934.16;5092780;28;20028;-82
2023/03/17 09:38:50;;;;;;;7.00;3.28;;;;;;;9.91;89.08;97939.63;5075844;28;20471;-83
2023/03/17 09:41:18;;;;;;;6.18;3.55;;;;;;;9.32;89.65;97939.22;5092294;28;20020;-83
2023/03/17 09:43:51;;;;;;;9.23;3.90;;;;;;;9.35;91.87;97949.72;5092551;28;20028;-82
2023/03/17 09:46:28;;;;;;;;;;;;;;;9.40;90.90;97959.22;5073935;28;20138;-83
2023/03/17 09:49:09;;;;;;;26.75;11.93;;;;;;;9.54;87.55;97959.38;5093914;28;19912;-84
2023/03/17 09:51:35;;;;;;;7.00;3.50;;;;;;;9.64;86.08;97949.09;5087050;28;20028;-82
2023/03/17 09:54:02;;;;;;;8.15;3.60;;;;;;;9.36;85.68;97954.09;5075770;28;20028;-83
2023/03/17 09:56:31;;;;;;;9.32;3.72;;;;;;;9.57;83.99;97947.66;5075247;28;20122;-82
2023/03/17 09:59:06;;;;;;;7.32;3.33;;;;;;;9.27;83.68;97937.63;5075275;28;20089;-81
2023/03/17 10:01:32;;;;;;;5.63;3.35;;;;;;;9.42;81.44;97945.78;5075185;28;20058;-82
2023/03/17 10:04:07;;;;;;;5.38;2.92;;;;;;;9.64;80.52;97941.06;5075284;28;20036;-82
2023/03/17 10:06:37;;;;;;;5.47;3.50;;;;;;;9.53;85.26;97949.66;5075377;28;20063;-83
2023/03/17 10:09:27;;;;;;;15.43;4.05;;;;;;;9.36;87.18;97957.66;5092499;28;20100;-83
2023/03/17 10:11:59;;;;;;;5.28;3.13;;;;;;;9.32;84.67;97950.72;5092090;28;20494;-82
2023/03/17 10:14:54;;;;;;;4.10;2.70;;;;;;;9.22;86.34;97950.34;5092381;28;20024;-82
2023/03/17 10:17:25;;;;;;;5.53;2.60;;;;;;;9.07;85.51;97940.44;5074648;28;20032;-82
2023/03/17 10:20:07;;;;;;;9.05;3.72;;;;;;;9.19;80.89;97938.97;5075036;28;20032;-82
2023/03/17 10:22:33;;;;;;;;;;;;;;;9.71;83.12;97956.72;5071649;28;20251;-82
2023/03/17 10:25:32;;;;;;;8.23;4.60;;;;;;;10.18;80.68;97942.69;5091474;28;19916;-82
2023/03/17 10:28:02;;;;;;;7.45;3.70;;;;;;;10.84;75.22;97944.28;5059560;28;20063;-82
2023/03/17 10:30:30;;;;;;;4.28;2.72;;;;;;;11.04;68.71;97919.06;5074897;28;20027;-81
2023/03/17 10:33:00;;;;;;;3.60;2.38;;;;;;;11.31;68.30;97917.47;5074218;28;20505;-83
2023/03/17 10:35:34;;;;;;;3.92;2.97;;;;;;;12.07;63.91;97917.34;5074747;28;20541;-82
2023/03/17 10:38:01;;;;;;;4.57;2.63;;;;;;;12.57;63.82;97922.22;5075150;28;20384;-82
2023/03/17 10:40:29;;;;;;;11.35;2.70;;;;;;;12.69;60.23;97919.59;5091492;28;20024;-82
2023/03/17 10:43:06;;;;;;;3.97;2.60;;;;;;;12.60;59.08;97898.72;5091262;28;20063;-83
2023/03/17 10:45:39;;;;;;;4.03;2.60;;;;;;;13.05;56.96;97902.91;5090672;28;20431;-81
2023/03/17 10:48:08;;;;;;;5.05;2.92;;;;;;;12.79;57.42;97896.59;5074463;28;20024;-82
2023/03/17 10:50:38;;;;;;;3.60;2.20;;;;;;;12.13;57.09;97882.97;5074557;28;20063;-84
2023/03/17 10:53:20;;;;;;;4.60;3.10;;;;;;;13.07;55.88;97902.81;5091299;28;20032;-82
2023/03/17 10:55:50;;;;;;;6.43;2.90;;;;;;;13.60;57.43;97905.47;5091173;28;20032;-83
2023/03/17 10:58:19;;;;;;;5.47;3.63;;;;;;;14.12;56.46;97908.09;5074157;28;20027;-83
2023/03/17 11:00:55;;;;;;;10.30;5.88;;;;;;;14.19;55.29;97887.84;5091293;28;20588;-81
2023/03/17 11:03:24;;;;;;;3.78;2.55;;;;;;;14.70;51.44;97891.38;5091023;28;20024;-81
2023/03/17 11:05:56;;;;;;;4.70;2.55;;;;;;;14.94;53.27;97902.16;5090886;28;20027;-81
2023/03/17 11:08:22;;;;;;;4.57;2.72;;;;;;;14.96;53.28;97884.03;5090906;28;20488;-82
2023/03/17 11:10:53;;;;;;;8.95;3.40;;;;;;;16.48;48.63;97873.97;5090712;28;20064;-82
2023/03/17 11:13:19;;;;;;;9.93;3.72;;;;;;;16.12;49.99;97861.53;5074012;28;20080;-82
2023/03/17 11:16:00;;;;;;;12.57;4.25;;;;;;;15.54;50.97;97862.53;5091021;28;20484;-82
2023/03/17 11:18:35;;;;;;;7.35;3.65;;;;;;;15.50;51.93;97862.91;5091890;28;20039;-82
2023/03/17 11:21:15;;;;;;;3.90;3.00;;;;;;;14.19;50.73;97844.81;5073679;28;20028;-82
2023/03/17 11:23:46;;;;;;;5.90;3.20;;;;;;;13.69;53.24;97860.97;5084009;27;20133;-83
2023/03/17 11:26:41;;;;;;;8.50;3.90;;;;;;;15.06;53.21;97880.56;5140146;27;20046;-82
2023/03/17 11:29:32;;;;;;;5.72;3.42;;;;;;;16.43;48.33;97862.66;5132789;27;20478;-82
2023/03/17 11:32:08;;;;;;;5.10;3.40;;;;;;;17.43;47.34;97850.78;5130139;27;20034;-82
2023/03/17 11:34:34;;;;;;;9.02;4.35;;;;;;;15.72;48.79;97826.03;5120053;27;20425;-82
2023/03/17 11:37:36;;;;;;;9.30;4.28;;;;;;;14.58;52.14;97833.03;5120551;27;20027;-83